sensor_id;sensor_type;location;lat;lon;timestamp;P1;durP1;ratioP1;P2;durP2;ratioP2
29092;SDS011;16167;48.768;14.984;2023-07-24T00:00:54;10.57;;;7.15;;
29092;SDS011;16167;48.768;14.984;2023-07-24T00:03:23;11.68;;;7.90;;
29092;SDS011;16167;48.768;14.984;2023-07-24T00:05:51;12.10;;;7.70;;
29092;SDS011;16167;48.768;14.984;2023-07-24T00:08:20;12.32;;;7.82;;
29092;SDS011;16167;48.768;14.984;2023-07-24T00:10:48;13.48;;;8.07;;
29092;SDS011;16167;48.768;14.984;2023-07-24T00:13:17;12.30;;;8.20;;
29092;SDS011;16167;48.768;14.984;2023-07-24T00:18:13;13.45;;;8.50;;
29092;SDS011;16167;48.768;14.984;2023-07-24T00:20:41;13.95;;;8.27;;
29092;SDS011;16167;48.768;14.984;2023-07-24T00:23:09;12.50;;;8.13;;
29092;SDS011;16167;48.768;14.984;2023-07-24T00:25:38;11.75;;;7.65;;
29092;SDS011;16167;48.768;14.984;2023-07-24T00:28:06;13.23;;;8.68;;
29092;SDS011;16167;48.768;14.984;2023-07-24T00:30:35;13.15;;;8.25;;
29092;SDS011;16167;48.768;14.984;2023-07-24T00:33:03;13.23;;;8.13;;
29092;SDS011;16167;48.768;14.984;2023-07-24T00:35:32;12.38;;;8.13;;
29092;SDS011;16167;48.768;14.984;2023-07-24T00:38:00;12.48;;;8.18;;
29092;SDS011;16167;48.768;14.984;2023-07-24T00:40:29;14.38;;;8.35;;
29092;SDS011;16167;48.768;14.984;2023-07-24T00:42:57;11.30;;;7.88;;
29092;SDS011;16167;48.768;14.984;2023-07-24T00:45:25;12.88;;;8.45;;
29092;SDS011;16167;48.768;14.984;2023-07-24T00:47:54;12.02;;;8.10;;
29092;SDS011;16167;48.768;14.984;2023-07-24T00:50:23;12.35;;;8.30;;
29092;SDS011;16167;48.768;14.984;2023-07-24T00:52:52;11.18;;;8.02;;
29092;SDS011;16167;48.768;14.984;2023-07-24T00:55:21;11.20;;;8.23;;
29092;SDS011;16167;48.768;14.984;2023-07-24T00:57:49;13.05;;;8.45;;
29092;SDS011;16167;48.768;14.984;2023-07-24T01:00:17;10.88;;;7.45;;
29092;SDS011;16167;48.768;14.984;2023-07-24T01:02:45;14.15;;;8.27;;
29092;SDS011;16167;48.768;14.984;2023-07-24T01:05:15;12.03;;;8.13;;
29092;SDS011;16167;48.768;14.984;2023-07-24T01:07:44;11.88;;;7.65;;
29092;SDS011;16167;48.768;14.984;2023-07-24T01:10:13;11.45;;;7.63;;
29092;SDS011;16167;48.768;14.984;2023-07-24T01:12:43;12.45;;;8.07;;
29092;SDS011;16167;48.768;14.984;2023-07-24T01:15:19;13.48;;;8.90;;
29092;SDS011;16167;48.768;14.984;2023-07-24T01:17:54;11.65;;;8.43;;
29092;SDS011;16167;48.768;14.984;2023-07-24T01:20:29;13.00;;;8.60;;
29092;SDS011;16167;48.768;14.984;2023-07-24T01:23:04;13.45;;;8.07;;
29092;SDS011;16167;48.768;14.984;2023-07-24T01:25:50;11.85;;;8.00;;
29092;SDS011;16167;48.768;14.984;2023-07-24T01:28:21;12.48;;;8.07;;
29092;SDS011;16167;48.768;14.984;2023-07-24T01:30:50;12.10;;;8.00;;
29092;SDS011;16167;48.768;14.984;2023-07-24T01:33:18;14.07;;;8.98;;
29092;SDS011;16167;48.768;14.984;2023-07-24T01:35:47;13.00;;;7.72;;
29092;SDS011;16167;48.768;14.984;2023-07-24T01:38:18;11.63;;;8.38;;
29092;SDS011;16167;48.768;14.984;2023-07-24T01:40:47;11.80;;;7.80;;
29092;SDS011;16167;48.768;14.984;2023-07-24T01:43:17;11.90;;;8.05;;
29092;SDS011;16167;48.768;14.984;2023-07-24T01:48:13;15.10;;;9.15;;
29092;SDS011;16167;48.768;14.984;2023-07-24T01:50:41;11.68;;;8.52;;
29092;SDS011;16167;48.768;14.984;2023-07-24T01:53:09;15.68;;;9.13;;
29092;SDS011;16167;48.768;14.984;2023-07-24T01:55:37;11.93;;;8.13;;
29092;SDS011;16167;48.768;14.984;2023-07-24T01:58:06;12.77;;;8.40;;
29092;SDS011;16167;48.768;14.984;2023-07-24T02:00:35;12.93;;;8.20;;
29092;SDS011;16167;48.768;14.984;2023-07-24T02:05:31;12.55;;;8.48;;
29092;SDS011;16167;48.768;14.984;2023-07-24T02:08:00;11.75;;;7.95;;
29092;SDS011;16167;48.768;14.984;2023-07-24T02:10:28;12.13;;;8.63;;
29092;SDS011;16167;48.768;14.984;2023-07-24T02:12:57;18.00;;;8.98;;
29092;SDS011;16167;48.768;14.984;2023-07-24T02:15:25;13.43;;;8.98;;
29092;SDS011;16167;48.768;14.984;2023-07-24T02:17:54;13.63;;;8.48;;
29092;SDS011;16167;48.768;14.984;2023-07-24T02:22:50;14.63;;;8.52;;
29092;SDS011;16167;48.768;14.984;2023-07-24T02:25:18;11.05;;;7.72;;
29092;SDS011;16167;48.768;14.984;2023-07-24T02:27:46;12.23;;;8.40;;
29092;SDS011;16167;48.768;14.984;2023-07-24T02:30:14;15.48;;;7.90;;
29092;SDS011;16167;48.768;14.984;2023-07-24T02:32:43;14.90;;;8.95;;
29092;SDS011;16167;48.768;14.984;2023-07-24T02:35:12;13.30;;;8.32;;
29092;SDS011;16167;48.768;14.984;2023-07-24T02:40:08;15.40;;;8.35;;
29092;SDS011;16167;48.768;14.984;2023-07-24T02:42:37;14.50;;;8.35;;
29092;SDS011;16167;48.768;14.984;2023-07-24T02:45:06;11.55;;;8.43;;
29092;SDS011;16167;48.768;14.984;2023-07-24T02:47:37;11.48;;;7.93;;
29092;SDS011;16167;48.768;14.984;2023-07-24T02:50:05;12.68;;;8.43;;
29092;SDS011;16167;48.768;14.984;2023-07-24T02:52:35;12.65;;;8.40;;
29092;SDS011;16167;48.768;14.984;2023-07-24T02:57:32;13.80;;;8.40;;
29092;SDS011;16167;48.768;14.984;2023-07-24T03:00:00;12.15;;;8.50;;
29092;SDS011;16167;48.768;14.984;2023-07-24T03:02:29;12.82;;;7.70;;
29092;SDS011;16167;48.768;14.984;2023-07-24T03:04:57;14.23;;;8.95;;
29092;SDS011;16167;48.768;14.984;2023-07-24T03:07:25;12.15;;;8.40;;
29092;SDS011;16167;48.768;14.984;2023-07-24T03:09:55;12.32;;;8.40;;
29092;SDS011;16167;48.768;14.984;2023-07-24T03:14:51;13.10;;;8.52;;
29092;SDS011;16167;48.768;14.984;2023-07-24T03:17:19;12.95;;;8.07;;
29092;SDS011;16167;48.768;14.984;2023-07-24T03:19:47;13.38;;;9.13;;
29092;SDS011;16167;48.768;14.984;2023-07-24T03:22:16;14.00;;;8.85;;
29092;SDS011;16167;48.768;14.984;2023-07-24T03:24:44;12.70;;;8.27;;
29092;SDS011;16167;48.768;14.984;2023-07-24T03:27:14;15.32;;;9.00;;
29092;SDS011;16167;48.768;14.984;2023-07-24T03:32:10;13.32;;;8.90;;
29092;SDS011;16167;48.768;14.984;2023-07-24T03:34:38;14.48;;;9.35;;
29092;SDS011;16167;48.768;14.984;2023-07-24T03:37:06;14.25;;;9.05;;
29092;SDS011;16167;48.768;14.984;2023-07-24T03:39:34;14.45;;;9.48;;
29092;SDS011;16167;48.768;14.984;2023-07-24T03:42:02;14.05;;;8.68;;
29092;SDS011;16167;48.768;14.984;2023-07-24T03:44:32;11.90;;;8.40;;
29092;SDS011;16167;48.768;14.984;2023-07-24T03:49:29;13.00;;;8.40;;
29092;SDS011;16167;48.768;14.984;2023-07-24T03:51:57;13.43;;;8.50;;
29092;SDS011;16167;48.768;14.984;2023-07-24T03:54:25;13.18;;;8.70;;
29092;SDS011;16167;48.768;14.984;2023-07-24T03:56:53;11.90;;;8.40;;
29092;SDS011;16167;48.768;14.984;2023-07-24T03:59:21;15.57;;;8.80;;
29092;SDS011;16167;48.768;14.984;2023-07-24T04:01:51;13.65;;;8.65;;
29092;SDS011;16167;48.768;14.984;2023-07-24T04:06:47;13.88;;;8.95;;
29092;SDS011;16167;48.768;14.984;2023-07-24T04:09:15;13.10;;;8.85;;
29092;SDS011;16167;48.768;14.984;2023-07-24T04:11:43;14.23;;;9.30;;
29092;SDS011;16167;48.768;14.984;2023-07-24T04:14:12;12.18;;;8.07;;
29092;SDS011;16167;48.768;14.984;2023-07-24T04:16:40;10.85;;;7.60;;
29092;SDS011;16167;48.768;14.984;2023-07-24T04:19:09;13.40;;;8.80;;
29092;SDS011;16167;48.768;14.984;2023-07-24T04:21:40;14.70;;;8.80;;
29092;SDS011;16167;48.768;14.984;2023-07-24T04:24:08;14.85;;;8.98;;
29092;SDS011;16167;48.768;14.984;2023-07-24T04:26:36;14.07;;;9.25;;
29092;SDS011;16167;48.768;14.984;2023-07-24T04:29:05;12.70;;;8.68;;
29092;SDS011;16167;48.768;14.984;2023-07-24T04:31:34;12.25;;;8.75;;
29092;SDS011;16167;48.768;14.984;2023-07-24T04:34:02;13.30;;;9.07;;
29092;SDS011;16167;48.768;14.984;2023-07-24T04:36:31;13.85;;;8.93;;
29092;SDS011;16167;48.768;14.984;2023-07-24T04:41:27;14.20;;;8.35;;
29092;SDS011;16167;48.768;14.984;2023-07-24T04:43:55;14.10;;;8.35;;
29092;SDS011;16167;48.768;14.984;2023-07-24T04:46:24;17.70;;;8.88;;
29092;SDS011;16167;48.768;14.984;2023-07-24T04:48:52;14.35;;;9.73;;
29092;SDS011;16167;48.768;14.984;2023-07-24T04:51:20;20.92;;;9.88;;
29092;SDS011;16167;48.768;14.984;2023-07-24T04:53:49;16.90;;;9.65;;
29092;SDS011;16167;48.768;14.984;2023-07-24T04:58:45;20.23;;;9.45;;
29092;SDS011;16167;48.768;14.984;2023-07-24T05:01:13;15.93;;;9.70;;
29092;SDS011;16167;48.768;14.984;2023-07-24T05:03:41;15.55;;;9.40;;
29092;SDS011;16167;48.768;14.984;2023-07-24T05:06:09;12.98;;;8.82;;
29092;SDS011;16167;48.768;14.984;2023-07-24T05:08:38;14.70;;;9.05;;
29092;SDS011;16167;48.768;14.984;2023-07-24T05:11:07;14.40;;;9.23;;
29092;SDS011;16167;48.768;14.984;2023-07-24T05:16:03;13.35;;;8.48;;
29092;SDS011;16167;48.768;14.984;2023-07-24T05:18:32;13.13;;;8.77;;
29092;SDS011;16167;48.768;14.984;2023-07-24T05:21:00;17.95;;;10.02;;
29092;SDS011;16167;48.768;14.984;2023-07-24T05:23:28;16.85;;;9.98;;
29092;SDS011;16167;48.768;14.984;2023-07-24T05:25:56;16.35;;;9.77;;
29092;SDS011;16167;48.768;14.984;2023-07-24T05:28:26;16.38;;;9.80;;
29092;SDS011;16167;48.768;14.984;2023-07-24T05:30:55;12.98;;;9.52;;
29092;SDS011;16167;48.768;14.984;2023-07-24T05:33:23;17.90;;;9.83;;
29092;SDS011;16167;48.768;14.984;2023-07-24T05:35:51;13.00;;;9.20;;
29092;SDS011;16167;48.768;14.984;2023-07-24T05:38:24;14.32;;;9.73;;
29092;SDS011;16167;48.768;14.984;2023-07-24T05:40:55;17.35;;;10.45;;
29092;SDS011;16167;48.768;14.984;2023-07-24T05:43:23;18.60;;;10.82;;
29092;SDS011;16167;48.768;14.984;2023-07-24T05:45:53;16.65;;;10.45;;
29092;SDS011;16167;48.768;14.984;2023-07-24T05:48:23;17.20;;;9.77;;
29092;SDS011;16167;48.768;14.984;2023-07-24T05:50:51;17.25;;;10.73;;
29092;SDS011;16167;48.768;14.984;2023-07-24T05:53:19;13.85;;;9.07;;
29092;SDS011;16167;48.768;14.984;2023-07-24T05:55:55;14.25;;;9.57;;
29092;SDS011;16167;48.768;14.984;2023-07-24T05:58:24;17.23;;;9.60;;
29092;SDS011;16167;48.768;14.984;2023-07-24T06:00:53;13.63;;;9.20;;
29092;SDS011;16167;48.768;14.984;2023-07-24T06:03:22;14.13;;;9.25;;
29092;SDS011;16167;48.768;14.984;2023-07-24T06:05:51;13.05;;;8.75;;
29092;SDS011;16167;48.768;14.984;2023-07-24T06:08:20;14.25;;;9.40;;
29092;SDS011;16167;48.768;14.984;2023-07-24T06:10:48;12.80;;;8.73;;
29092;SDS011;16167;48.768;14.984;2023-07-24T06:13:17;14.80;;;9.85;;
29092;SDS011;16167;48.768;14.984;2023-07-24T06:15:46;14.98;;;9.90;;
29092;SDS011;16167;48.768;14.984;2023-07-24T06:18:16;13.82;;;8.65;;
29092;SDS011;16167;48.768;14.984;2023-07-24T06:20:44;15.38;;;9.57;;
29092;SDS011;16167;48.768;14.984;2023-07-24T06:23:12;14.00;;;8.95;;
29092;SDS011;16167;48.768;14.984;2023-07-24T06:25:41;13.02;;;8.80;;
29092;SDS011;16167;48.768;14.984;2023-07-24T06:28:09;14.80;;;9.82;;
29092;SDS011;16167;48.768;14.984;2023-07-24T06:30:38;13.73;;;9.93;;
29092;SDS011;16167;48.768;14.984;2023-07-24T06:33:06;13.13;;;9.55;;
29092;SDS011;16167;48.768;14.984;2023-07-24T06:35:36;17.40;;;9.35;;
29092;SDS011;16167;48.768;14.984;2023-07-24T06:38:04;15.27;;;9.65;;
29092;SDS011;16167;48.768;14.984;2023-07-24T06:40:34;13.95;;;9.65;;
29092;SDS011;16167;48.768;14.984;2023-07-24T06:43:02;14.75;;;10.32;;
29092;SDS011;16167;48.768;14.984;2023-07-24T06:45:31;15.95;;;9.73;;
29092;SDS011;16167;48.768;14.984;2023-07-24T06:47:59;14.98;;;9.75;;
29092;SDS011;16167;48.768;14.984;2023-07-24T06:50:27;13.20;;;9.60;;
29092;SDS011;16167;48.768;14.984;2023-07-24T06:52:56;14.23;;;9.07;;
29092;SDS011;16167;48.768;14.984;2023-07-24T06:55:25;13.55;;;9.98;;
29092;SDS011;16167;48.768;14.984;2023-07-24T06:57:53;11.98;;;9.00;;
29092;SDS011;16167;48.768;14.984;2023-07-24T07:00:21;13.90;;;9.23;;
29092;SDS011;16167;48.768;14.984;2023-07-24T07:02:49;14.07;;;9.85;;
29092;SDS011;16167;48.768;14.984;2023-07-24T07:05:17;14.38;;;9.13;;
29092;SDS011;16167;48.768;14.984;2023-07-24T07:07:45;11.57;;;9.13;;
29092;SDS011;16167;48.768;14.984;2023-07-24T07:10:15;15.40;;;9.90;;
29092;SDS011;16167;48.768;14.984;2023-07-24T07:12:43;12.88;;;9.38;;
29092;SDS011;16167;48.768;14.984;2023-07-24T07:15:11;14.02;;;10.55;;
29092;SDS011;16167;48.768;14.984;2023-07-24T07:17:39;14.77;;;9.88;;
29092;SDS011;16167;48.768;14.984;2023-07-24T07:20:07;15.25;;;10.15;;
29092;SDS011;16167;48.768;14.984;2023-07-24T07:22:36;14.35;;;10.23;;
29092;SDS011;16167;48.768;14.984;2023-07-24T07:25:04;12.95;;;9.77;;
29092;SDS011;16167;48.768;14.984;2023-07-24T07:27:34;14.60;;;10.82;;
29092;SDS011;16167;48.768;14.984;2023-07-24T07:30:02;15.38;;;10.75;;
29092;SDS011;16167;48.768;14.984;2023-07-24T07:32:31;15.13;;;10.40;;
29092;SDS011;16167;48.768;14.984;2023-07-24T07:34:59;15.57;;;10.10;;
29092;SDS011;16167;48.768;14.984;2023-07-24T07:37:28;15.95;;;10.63;;
29092;SDS011;16167;48.768;14.984;2023-07-24T07:39:56;15.27;;;10.30;;
29092;SDS011;16167;48.768;14.984;2023-07-24T07:42:24;14.30;;;10.27;;
29092;SDS011;16167;48.768;14.984;2023-07-24T07:44:53;14.90;;;10.50;;
29092;SDS011;16167;48.768;14.984;2023-07-24T07:47:21;18.27;;;10.73;;
29092;SDS011;16167;48.768;14.984;2023-07-24T07:49:50;13.95;;;10.25;;
29092;SDS011;16167;48.768;14.984;2023-07-24T07:52:18;13.27;;;9.50;;
29092;SDS011;16167;48.768;14.984;2023-07-24T07:54:48;13.63;;;9.77;;
29092;SDS011;16167;48.768;14.984;2023-07-24T07:57:16;16.27;;;10.20;;
29092;SDS011;16167;48.768;14.984;2023-07-24T07:59:44;14.57;;;10.18;;
29092;SDS011;16167;48.768;14.984;2023-07-24T08:02:13;15.55;;;10.10;;
29092;SDS011;16167;48.768;14.984;2023-07-24T08:04:42;13.85;;;9.90;;
29092;SDS011;16167;48.768;14.984;2023-07-24T08:07:10;13.75;;;10.15;;
29092;SDS011;16167;48.768;14.984;2023-07-24T08:09:38;13.32;;;10.05;;
29092;SDS011;16167;48.768;14.984;2023-07-24T08:12:06;13.82;;;9.38;;
29092;SDS011;16167;48.768;14.984;2023-07-24T08:14:35;13.00;;;9.30;;
29092;SDS011;16167;48.768;14.984;2023-07-24T08:17:03;12.80;;;9.48;;
29092;SDS011;16167;48.768;14.984;2023-07-24T08:19:33;13.75;;;9.82;;
29092;SDS011;16167;48.768;14.984;2023-07-24T08:22:01;15.05;;;9.43;;
29092;SDS011;16167;48.768;14.984;2023-07-24T08:24:33;12.38;;;9.20;;
29092;SDS011;16167;48.768;14.984;2023-07-24T08:27:01;14.52;;;10.18;;
29092;SDS011;16167;48.768;14.984;2023-07-24T08:29:30;13.27;;;9.32;;
29092;SDS011;16167;48.768;14.984;2023-07-24T08:34:27;14.50;;;9.70;;
29092;SDS011;16167;48.768;14.984;2023-07-24T08:36:57;13.85;;;9.80;;
29092;SDS011;16167;48.768;14.984;2023-07-24T08:39:25;12.63;;;9.50;;
29092;SDS011;16167;48.768;14.984;2023-07-24T08:41:53;13.57;;;9.75;;
29092;SDS011;16167;48.768;14.984;2023-07-24T08:44:21;13.60;;;9.65;;
29092;SDS011;16167;48.768;14.984;2023-07-24T08:46:52;15.73;;;9.27;;
29092;SDS011;16167;48.768;14.984;2023-07-24T08:49:21;13.67;;;9.90;;
29092;SDS011;16167;48.768;14.984;2023-07-24T08:51:49;14.95;;;9.60;;
29092;SDS011;16167;48.768;14.984;2023-07-24T08:54:19;17.73;;;10.27;;
29092;SDS011;16167;48.768;14.984;2023-07-24T08:56:48;13.40;;;10.30;;
29092;SDS011;16167;48.768;14.984;2023-07-24T08:59:18;13.57;;;10.18;;
29092;SDS011;16167;48.768;14.984;2023-07-24T09:01:46;13.75;;;9.20;;
29092;SDS011;16167;48.768;14.984;2023-07-24T09:04:14;13.57;;;10.10;;
29092;SDS011;16167;48.768;14.984;2023-07-24T09:06:42;12.93;;;9.45;;
29092;SDS011;16167;48.768;14.984;2023-07-24T09:09:12;12.55;;;9.10;;
29092;SDS011;16167;48.768;14.984;2023-07-24T09:11:50;12.52;;;9.48;;
29092;SDS011;16167;48.768;14.984;2023-07-24T09:14:22;14.40;;;8.68;;
29092;SDS011;16167;48.768;14.984;2023-07-24T09:17:01;11.90;;;8.73;;
29092;SDS011;16167;48.768;14.984;2023-07-24T09:19:30;12.75;;;9.63;;
29092;SDS011;16167;48.768;14.984;2023-07-24T09:22:07;10.53;;;8.80;;
29092;SDS011;16167;48.768;14.984;2023-07-24T09:24:37;13.00;;;9.35;;
29092;SDS011;16167;48.768;14.984;2023-07-24T09:27:06;12.45;;;9.07;;
29092;SDS011;16167;48.768;14.984;2023-07-24T09:29:36;11.00;;;9.18;;
29092;SDS011;16167;48.768;14.984;2023-07-24T09:32:04;10.73;;;8.95;;
29092;SDS011;16167;48.768;14.984;2023-07-24T09:34:33;12.43;;;9.65;;
29092;SDS011;16167;48.768;14.984;2023-07-24T09:37:01;11.80;;;9.10;;
29092;SDS011;16167;48.768;14.984;2023-07-24T09:39:29;11.57;;;9.18;;
29092;SDS011;16167;48.768;14.984;2023-07-24T09:42:02;12.70;;;9.90;;
29092;SDS011;16167;48.768;14.984;2023-07-24T09:44:32;11.35;;;9.48;;
29092;SDS011;16167;48.768;14.984;2023-07-24T09:47:01;10.80;;;8.48;;
29092;SDS011;16167;48.768;14.984;2023-07-24T09:52:18;11.93;;;9.13;;
29092;SDS011;16167;48.768;14.984;2023-07-24T09:54:49;12.00;;;9.63;;
29092;SDS011;16167;48.768;14.984;2023-07-24T09:57:26;13.85;;;9.95;;
29092;SDS011;16167;48.768;14.984;2023-07-24T09:59:58;9.73;;;8.73;;
29092;SDS011;16167;48.768;14.984;2023-07-24T10:02:27;11.80;;;8.98;;
29092;SDS011;16167;48.768;14.984;2023-07-24T10:04:56;11.05;;;8.85;;
29092;SDS011;16167;48.768;14.984;2023-07-24T10:07:24;11.85;;;9.13;;
29092;SDS011;16167;48.768;14.984;2023-07-24T10:09:53;10.80;;;9.10;;
29092;SDS011;16167;48.768;14.984;2023-07-24T10:12:22;11.80;;;8.98;;
29092;SDS011;16167;48.768;14.984;2023-07-24T10:14:54;11.45;;;8.90;;
29092;SDS011;16167;48.768;14.984;2023-07-24T10:17:36;11.35;;;9.13;;
29092;SDS011;16167;48.768;14.984;2023-07-24T10:20:06;10.80;;;8.80;;
29092;SDS011;16167;48.768;14.984;2023-07-24T10:22:35;10.57;;;9.27;;
29092;SDS011;16167;48.768;14.984;2023-07-24T10:25:08;11.02;;;9.15;;
29092;SDS011;16167;48.768;14.984;2023-07-24T10:27:39;10.70;;;9.60;;
29092;SDS011;16167;48.768;14.984;2023-07-24T10:30:10;10.80;;;9.70;;
29092;SDS011;16167;48.768;14.984;2023-07-24T10:33:04;9.70;;;8.40;;
29092;SDS011;16167;48.768;14.984;2023-07-24T10:35:37;9.95;;;8.63;;
29092;SDS011;16167;48.768;14.984;2023-07-24T10:38:09;10.75;;;9.45;;
29092;SDS011;16167;48.768;14.984;2023-07-24T10:40:39;11.57;;;9.15;;
29092;SDS011;16167;48.768;14.984;2023-07-24T10:43:08;11.13;;;9.55;;
29092;SDS011;16167;48.768;14.984;2023-07-24T10:45:46;10.27;;;8.60;;
29092;SDS011;16167;48.768;14.984;2023-07-24T10:50:46;10.88;;;9.02;;
29092;SDS011;16167;48.768;14.984;2023-07-24T10:53:20;9.45;;;8.40;;
29092;SDS011;16167;48.768;14.984;2023-07-24T10:55:50;10.43;;;8.77;;
29092;SDS011;16167;48.768;14.984;2023-07-24T10:58:19;12.20;;;9.30;;
29092;SDS011;16167;48.768;14.984;2023-07-24T11:00:47;10.60;;;8.68;;
29092;SDS011;16167;48.768;14.984;2023-07-24T11:03:16;11.52;;;9.10;;
29092;SDS011;16167;48.768;14.984;2023-07-24T11:05:45;10.98;;;8.90;;
29092;SDS011;16167;48.768;14.984;2023-07-24T11:08:15;10.85;;;9.10;;
29092;SDS011;16167;48.768;14.984;2023-07-24T11:10:45;10.30;;;8.15;;
29092;SDS011;16167;48.768;14.984;2023-07-24T11:13:14;12.23;;;9.10;;
29092;SDS011;16167;48.768;14.984;2023-07-24T11:15:42;10.82;;;8.73;;
29092;SDS011;16167;48.768;14.984;2023-07-24T11:18:11;12.80;;;8.15;;
29092;SDS011;16167;48.768;14.984;2023-07-24T11:20:44;10.70;;;8.55;;
29092;SDS011;16167;48.768;14.984;2023-07-24T11:23:13;10.98;;;8.13;;
29092;SDS011;16167;48.768;14.984;2023-07-24T11:25:41;10.57;;;8.20;;
29092;SDS011;16167;48.768;14.984;2023-07-24T11:28:10;10.10;;;7.93;;
29092;SDS011;16167;48.768;14.984;2023-07-24T11:30:40;9.30;;;8.30;;
29092;SDS011;16167;48.768;14.984;2023-07-24T11:35:36;9.63;;;7.90;;
29092;SDS011;16167;48.768;14.984;2023-07-24T11:38:09;10.90;;;8.38;;
29092;SDS011;16167;48.768;14.984;2023-07-24T11:40:38;9.38;;;8.13;;
29092;SDS011;16167;48.768;14.984;2023-07-24T11:43:15;9.90;;;8.63;;
29092;SDS011;16167;48.768;14.984;2023-07-24T11:45:44;8.50;;;7.13;;
29092;SDS011;16167;48.768;14.984;2023-07-24T11:48:13;8.43;;;7.57;;
29092;SDS011;16167;48.768;14.984;2023-07-24T11:50:42;9.68;;;7.35;;
29092;SDS011;16167;48.768;14.984;2023-07-24T11:53:19;11.82;;;8.20;;
29092;SDS011;16167;48.768;14.984;2023-07-24T11:55:49;8.88;;;7.55;;
29092;SDS011;16167;48.768;14.984;2023-07-24T12:00:46;8.40;;;7.10;;
29092;SDS011;16167;48.768;14.984;2023-07-24T12:03:18;9.13;;;7.40;;
29092;SDS011;16167;48.768;14.984;2023-07-24T12:05:47;9.60;;;7.40;;
29092;SDS011;16167;48.768;14.984;2023-07-24T12:08:17;9.30;;;7.53;;
29092;SDS011;16167;48.768;14.984;2023-07-24T12:10:51;8.60;;;7.28;;
29092;SDS011;16167;48.768;14.984;2023-07-24T12:13:19;8.77;;;7.65;;
29092;SDS011;16167;48.768;14.984;2023-07-24T12:15:47;10.93;;;7.47;;
29092;SDS011;16167;48.768;14.984;2023-07-24T12:18:15;9.73;;;8.50;;
29092;SDS011;16167;48.768;14.984;2023-07-24T12:20:44;11.70;;;8.32;;
29092;SDS011;16167;48.768;14.984;2023-07-24T12:23:12;10.35;;;8.07;;
29092;SDS011;16167;48.768;14.984;2023-07-24T12:25:40;9.35;;;7.57;;
29092;SDS011;16167;48.768;14.984;2023-07-24T12:28:09;8.65;;;7.75;;
29092;SDS011;16167;48.768;14.984;2023-07-24T12:30:37;9.23;;;7.63;;
29092;SDS011;16167;48.768;14.984;2023-07-24T12:33:05;9.63;;;8.10;;
29092;SDS011;16167;48.768;14.984;2023-07-24T12:35:34;10.40;;;8.90;;
29092;SDS011;16167;48.768;14.984;2023-07-24T12:38:02;11.75;;;8.05;;
29092;SDS011;16167;48.768;14.984;2023-07-24T12:40:30;10.98;;;7.38;;
29092;SDS011;16167;48.768;14.984;2023-07-24T12:42:58;10.15;;;8.25;;
29092;SDS011;16167;48.768;14.984;2023-07-24T12:45:27;9.30;;;8.40;;
29092;SDS011;16167;48.768;14.984;2023-07-24T12:47:55;9.93;;;7.93;;
29092;SDS011;16167;48.768;14.984;2023-07-24T12:50:23;12.80;;;8.05;;
29092;SDS011;16167;48.768;14.984;2023-07-24T12:52:52;8.68;;;7.68;;
29092;SDS011;16167;48.768;14.984;2023-07-24T12:55:20;9.55;;;7.65;;
29092;SDS011;16167;48.768;14.984;2023-07-24T12:57:48;9.57;;;7.75;;
29092;SDS011;16167;48.768;14.984;2023-07-24T13:00:16;10.00;;;7.68;;
29092;SDS011;16167;48.768;14.984;2023-07-24T13:02:46;9.45;;;8.15;;
29092;SDS011;16167;48.768;14.984;2023-07-24T13:05:14;11.75;;;7.47;;
29092;SDS011;16167;48.768;14.984;2023-07-24T13:07:42;9.85;;;7.70;;
29092;SDS011;16167;48.768;14.984;2023-07-24T13:10:12;11.07;;;8.57;;
29092;SDS011;16167;48.768;14.984;2023-07-24T13:12:40;9.13;;;7.93;;
29092;SDS011;16167;48.768;14.984;2023-07-24T13:15:08;10.18;;;8.23;;
29092;SDS011;16167;48.768;14.984;2023-07-24T13:17:37;9.40;;;8.23;;
29092;SDS011;16167;48.768;14.984;2023-07-24T13:20:07;9.77;;;7.93;;
29092;SDS011;16167;48.768;14.984;2023-07-24T13:22:36;8.93;;;7.50;;
29092;SDS011;16167;48.768;14.984;2023-07-24T13:25:04;10.10;;;8.45;;
29092;SDS011;16167;48.768;14.984;2023-07-24T13:27:33;8.85;;;7.40;;
29092;SDS011;16167;48.768;14.984;2023-07-24T13:30:01;10.52;;;8.40;;
29092;SDS011;16167;48.768;14.984;2023-07-24T13:32:29;10.07;;;7.75;;
29092;SDS011;16167;48.768;14.984;2023-07-24T13:34:57;10.30;;;7.55;;
29092;SDS011;16167;48.768;14.984;2023-07-24T13:37:27;10.85;;;8.20;;
29092;SDS011;16167;48.768;14.984;2023-07-24T13:39:55;9.20;;;7.72;;
29092;SDS011;16167;48.768;14.984;2023-07-24T13:42:24;10.25;;;8.10;;
29092;SDS011;16167;48.768;14.984;2023-07-24T13:44:52;11.27;;;8.40;;
29092;SDS011;16167;48.768;14.984;2023-07-24T13:47:20;10.77;;;8.00;;
29092;SDS011;16167;48.768;14.984;2023-07-24T13:49:48;10.20;;;7.97;;
29092;SDS011;16167;48.768;14.984;2023-07-24T13:52:16;9.48;;;7.78;;
29092;SDS011;16167;48.768;14.984;2023-07-24T13:54:46;10.93;;;8.40;;
29092;SDS011;16167;48.768;14.984;2023-07-24T13:57:14;9.52;;;7.93;;
29092;SDS011;16167;48.768;14.984;2023-07-24T13:59:42;8.57;;;7.60;;
29092;SDS011;16167;48.768;14.984;2023-07-24T14:02:10;10.35;;;7.82;;
29092;SDS011;16167;48.768;14.984;2023-07-24T14:07:07;8.40;;;7.57;;
29092;SDS011;16167;48.768;14.984;2023-07-24T14:09:36;9.82;;;8.00;;
29092;SDS011;16167;48.768;14.984;2023-07-24T14:12:08;10.73;;;8.02;;
29092;SDS011;16167;48.768;14.984;2023-07-24T14:14:36;10.07;;;8.15;;
29092;SDS011;16167;48.768;14.984;2023-07-24T14:17:04;8.90;;;7.75;;
29092;SDS011;16167;48.768;14.984;2023-07-24T14:19:33;10.55;;;8.07;;
29092;SDS011;16167;48.768;14.984;2023-07-24T14:22:01;10.25;;;8.30;;
29092;SDS011;16167;48.768;14.984;2023-07-24T14:24:29;9.20;;;7.60;;
29092;SDS011;16167;48.768;14.984;2023-07-24T14:26:57;9.25;;;8.02;;
29092;SDS011;16167;48.768;14.984;2023-07-24T14:29:26;10.52;;;7.50;;
29092;SDS011;16167;48.768;14.984;2023-07-24T14:31:54;8.63;;;7.68;;
29092;SDS011;16167;48.768;14.984;2023-07-24T14:34:23;10.38;;;8.73;;
29092;SDS011;16167;48.768;14.984;2023-07-24T14:36:51;10.10;;;7.60;;
29092;SDS011;16167;48.768;14.984;2023-07-24T14:39:19;8.93;;;7.38;;
29092;SDS011;16167;48.768;14.984;2023-07-24T14:41:47;10.57;;;8.18;;
29092;SDS011;16167;48.768;14.984;2023-07-24T14:44:15;8.48;;;7.68;;
29092;SDS011;16167;48.768;14.984;2023-07-24T14:46:45;9.05;;;7.55;;
29092;SDS011;16167;48.768;14.984;2023-07-24T14:49:13;7.80;;;6.95;;
29092;SDS011;16167;48.768;14.984;2023-07-24T14:51:41;9.70;;;7.10;;
29092;SDS011;16167;48.768;14.984;2023-07-24T14:54:09;7.80;;;7.00;;
29092;SDS011;16167;48.768;14.984;2023-07-24T14:56:37;8.80;;;7.68;;
29092;SDS011;16167;48.768;14.984;2023-07-24T14:59:24;8.38;;;7.32;;
29092;SDS011;16167;48.768;14.984;2023-07-24T15:01:54;9.95;;;7.90;;
29092;SDS011;16167;48.768;14.984;2023-07-24T15:04:22;9.98;;;7.70;;
29092;SDS011;16167;48.768;14.984;2023-07-24T15:06:50;10.30;;;7.60;;
29092;SDS011;16167;48.768;14.984;2023-07-24T15:09:18;7.22;;;6.28;;
29092;SDS011;16167;48.768;14.984;2023-07-24T15:11:46;9.35;;;7.32;;
29092;SDS011;16167;48.768;14.984;2023-07-24T15:14:14;9.75;;;7.63;;
29092;SDS011;16167;48.768;14.984;2023-07-24T15:16:42;9.02;;;7.80;;
29092;SDS011;16167;48.768;14.984;2023-07-24T15:19:13;10.65;;;7.78;;
29092;SDS011;16167;48.768;14.984;2023-07-24T15:21:41;10.43;;;7.90;;